sensor_id;sensor_type;location;lat;lon;timestamp;P1;durP1;ratioP1;P2;durP2;ratioP2
24681;SDS011;12802;53.390;-2.328;2023-11-21T00:01:37;1.73;;;0.40;;
24681;SDS011;12802;53.390;-2.328;2023-11-21T00:04:03;2.17;;;0.40;;
24681;SDS011;12802;53.390;-2.328;2023-11-21T00:06:30;1.85;;;0.50;;
24681;SDS011;12802;53.390;-2.328;2023-11-21T00:08:56;2.90;;;0.30;;
24681;SDS011;12802;53.390;-2.328;2023-11-21T00:11:22;0.70;;;0.20;;
24681;SDS011;12802;53.390;-2.328;2023-11-21T00:13:50;3.13;;;0.25;;
24681;SDS011;12802;53.390;-2.328;2023-11-21T00:16:16;1.50;;;0.20;;
24681;SDS011;12802;53.390;-2.328;2023-11-21T00:18:42;0.70;;;0.30;;
24681;SDS011;12802;53.390;-2.328;2023-11-21T00:21:08;3.05;;;0.30;;
24681;SDS011;12802;53.390;-2.328;2023-11-21T00:23:34;0.40;;;0.20;;
24681;SDS011;12802;53.390;-2.328;2023-11-21T00:26:00;1.42;;;0.20;;
24681;SDS011;12802;53.390;-2.328;2023-11-21T00:28:26;3.83;;;0.40;;
24681;SDS011;12802;53.390;-2.328;2023-11-21T00:30:53;1.75;;;0.25;;
24681;SDS011;12802;53.390;-2.328;2023-11-21T00:33:19;0.22;;;0.10;;
24681;SDS011;12802;53.390;-2.328;2023-11-21T00:35:45;1.17;;;0.28;;
24681;SDS011;12802;53.390;-2.328;2023-11-21T00:38:11;0.55;;;0.20;;
24681;SDS011;12802;53.390;-2.328;2023-11-21T00:40:37;0.70;;;0.35;;
24681;SDS011;12802;53.390;-2.328;2023-11-21T00:43:03;0.80;;;0.20;;
24681;SDS011;12802;53.390;-2.328;2023-11-21T00:45:30;0.73;;;0.20;;
24681;SDS011;12802;53.390;-2.328;2023-11-21T00:47:56;0.70;;;0.20;;
24681;SDS011;12802;53.390;-2.328;2023-11-21T00:50:23;0.57;;;0.22;;
24681;SDS011;12802;53.390;-2.328;2023-11-21T00:52:49;1.00;;;0.20;;
24681;SDS011;12802;53.390;-2.328;2023-11-21T00:55:16;3.95;;;0.30;;
24681;SDS011;12802;53.390;-2.328;2023-11-21T00:57:43;0.85;;;0.30;;
24681;SDS011;12802;53.390;-2.328;2023-11-21T01:00:09;0.93;;;0.20;;
24681;SDS011;12802;53.390;-2.328;2023-11-21T01:02:42;4.03;;;0.90;;
24681;SDS011;12802;53.390;-2.328;2023-11-21T01:05:09;2.05;;;0.38;;
24681;SDS011;12802;53.390;-2.328;2023-11-21T01:07:35;1.92;;;0.28;;
24681;SDS011;12802;53.390;-2.328;2023-11-21T01:10:02;1.38;;;0.20;;
24681;SDS011;12802;53.390;-2.328;2023-11-21T01:12:31;2.28;;;0.38;;
24681;SDS011;12802;53.390;-2.328;2023-11-21T01:14:57;1.67;;;0.13;;
24681;SDS011;12802;53.390;-2.328;2023-11-21T01:17:25;1.65;;;0.20;;
24681;SDS011;12802;53.390;-2.328;2023-11-21T01:19:52;1.90;;;0.20;;
24681;SDS011;12802;53.390;-2.328;2023-11-21T01:22:18;1.52;;;0.20;;
24681;SDS011;12802;53.390;-2.328;2023-11-21T01:24:50;2.20;;;0.22;;
24681;SDS011;12802;53.390;-2.328;2023-11-21T01:27:16;0.40;;;0.17;;
24681;SDS011;12802;53.390;-2.328;2023-11-21T01:29:43;1.65;;;0.20;;
24681;SDS011;12802;53.390;-2.328;2023-11-21T01:32:09;0.38;;;0.20;;
24681;SDS011;12802;53.390;-2.328;2023-11-21T01:34:36;1.25;;;0.20;;
24681;SDS011;12802;53.390;-2.328;2023-11-21T01:37:02;1.45;;;0.38;;
24681;SDS011;12802;53.390;-2.328;2023-11-21T01:39:30;2.60;;;0.30;;
24681;SDS011;12802;53.390;-2.328;2023-11-21T01:41:57;1.60;;;0.30;;
24681;SDS011;12802;53.390;-2.328;2023-11-21T01:44:23;1.90;;;0.52;;
24681;SDS011;12802;53.390;-2.328;2023-11-21T01:46:50;1.65;;;0.40;;
24681;SDS011;12802;53.390;-2.328;2023-11-21T01:49:17;0.82;;;0.20;;
24681;SDS011;12802;53.390;-2.328;2023-11-21T01:51:46;0.80;;;0.50;;
24681;SDS011;12802;53.390;-2.328;2023-11-21T01:54:17;0.73;;;0.20;;
24681;SDS011;12802;53.390;-2.328;2023-11-21T01:56:45;2.00;;;0.22;;
24681;SDS011;12802;53.390;-2.328;2023-11-21T01:59:12;2.00;;;0.30;;
24681;SDS011;12802;53.390;-2.328;2023-11-21T02:01:41;0.77;;;0.22;;
24681;SDS011;12802;53.390;-2.328;2023-11-21T02:04:07;0.85;;;0.32;;
24681;SDS011;12802;53.390;-2.328;2023-11-21T02:06:34;2.45;;;0.35;;
24681;SDS011;12802;53.390;-2.328;2023-11-21T02:09:00;0.75;;;0.30;;
24681;SDS011;12802;53.390;-2.328;2023-11-21T02:11:26;2.28;;;0.47;;
24681;SDS011;12802;53.390;-2.328;2023-11-21T02:13:53;0.35;;;0.20;;
24681;SDS011;12802;53.390;-2.328;2023-11-21T02:16:19;1.10;;;0.30;;
24681;SDS011;12802;53.390;-2.328;2023-11-21T02:18:49;1.00;;;0.30;;
24681;SDS011;12802;53.390;-2.328;2023-11-21T02:21:15;1.90;;;0.43;;
24681;SDS011;12802;53.390;-2.328;2023-11-21T02:23:42;2.70;;;0.45;;
24681;SDS011;12802;53.390;-2.328;2023-11-21T02:26:10;2.30;;;0.20;;
24681;SDS011;12802;53.390;-2.328;2023-11-21T02:28:36;0.80;;;0.28;;
24681;SDS011;12802;53.390;-2.328;2023-11-21T02:31:04;1.92;;;0.30;;
24681;SDS011;12802;53.390;-2.328;2023-11-21T02:33:31;1.15;;;0.30;;
24681;SDS011;12802;53.390;-2.328;2023-11-21T02:36:02;0.90;;;0.20;;
24681;SDS011;12802;53.390;-2.328;2023-11-21T02:38:28;1.35;;;0.30;;
24681;SDS011;12802;53.390;-2.328;2023-11-21T02:40:55;3.00;;;0.55;;
24681;SDS011;12802;53.390;-2.328;2023-11-21T02:43:21;0.95;;;0.30;;
24681;SDS011;12802;53.390;-2.328;2023-11-21T02:45:47;1.02;;;0.22;;
24681;SDS011;12802;53.390;-2.328;2023-11-21T02:48:13;1.50;;;0.35;;
24681;SDS011;12802;53.390;-2.328;2023-11-21T02:50:39;1.20;;;0.47;;
24681;SDS011;12802;53.390;-2.328;2023-11-21T02:53:06;2.60;;;0.40;;
24681;SDS011;12802;53.390;-2.328;2023-11-21T02:55:32;1.85;;;0.47;;
24681;SDS011;12802;53.390;-2.328;2023-11-21T02:58:01;2.00;;;0.30;;
24681;SDS011;12802;53.390;-2.328;2023-11-21T03:00:29;1.42;;;0.40;;
24681;SDS011;12802;53.390;-2.328;2023-11-21T03:02:55;0.85;;;0.20;;
24681;SDS011;12802;53.390;-2.328;2023-11-21T03:05:21;2.25;;;0.30;;
24681;SDS011;12802;53.390;-2.328;2023-11-21T03:07:47;2.53;;;0.40;;
24681;SDS011;12802;53.390;-2.328;2023-11-21T03:10:13;3.75;;;0.47;;
24681;SDS011;12802;53.390;-2.328;2023-11-21T03:12:40;0.30;;;0.17;;
24681;SDS011;12802;53.390;-2.328;2023-11-21T03:15:06;2.20;;;0.40;;
24681;SDS011;12802;53.390;-2.328;2023-11-21T03:17:32;1.02;;;0.40;;
24681;SDS011;12802;53.390;-2.328;2023-11-21T03:20:02;0.30;;;0.20;;
24681;SDS011;12802;53.390;-2.328;2023-11-21T03:22:29;2.90;;;0.40;;
24681;SDS011;12802;53.390;-2.328;2023-11-21T03:24:55;2.08;;;0.40;;
24681;SDS011;12802;53.390;-2.328;2023-11-21T03:27:21;3.60;;;0.20;;
24681;SDS011;12802;53.390;-2.328;2023-11-21T03:29:48;0.63;;;0.25;;
24681;SDS011;12802;53.390;-2.328;2023-11-21T03:32:16;1.23;;;0.22;;
24681;SDS011;12802;53.390;-2.328;2023-11-21T03:34:55;1.20;;;0.20;;
24681;SDS011;12802;53.390;-2.328;2023-11-21T03:37:21;1.73;;;0.28;;
24681;SDS011;12802;53.390;-2.328;2023-11-21T03:39:47;2.92;;;0.40;;
24681;SDS011;12802;53.390;-2.328;2023-11-21T03:42:14;2.28;;;0.30;;
24681;SDS011;12802;53.390;-2.328;2023-11-21T03:44:40;0.93;;;0.20;;
24681;SDS011;12802;53.390;-2.328;2023-11-21T03:47:06;1.92;;;0.40;;
24681;SDS011;12802;53.390;-2.328;2023-11-21T03:49:32;1.63;;;0.38;;
24681;SDS011;12802;53.390;-2.328;2023-11-21T03:51:58;2.05;;;0.40;;
24681;SDS011;12802;53.390;-2.328;2023-11-21T03:54:24;2.83;;;0.32;;
24681;SDS011;12802;53.390;-2.328;2023-11-21T03:56:51;0.50;;;0.20;;
24681;SDS011;12802;53.390;-2.328;2023-11-21T03:59:17;0.63;;;0.30;;
24681;SDS011;12802;53.390;-2.328;2023-11-21T04:01:43;1.02;;;0.30;;
24681;SDS011;12802;53.390;-2.328;2023-11-21T04:04:09;0.95;;;0.35;;
24681;SDS011;12802;53.390;-2.328;2023-11-21T04:06:35;3.15;;;0.20;;
24681;SDS011;12802;53.390;-2.328;2023-11-21T04:09:02;1.95;;;0.30;;
24681;SDS011;12802;53.390;-2.328;2023-11-21T04:11:29;0.82;;;0.30;;
24681;SDS011;12802;53.390;-2.328;2023-11-21T04:13:55;1.30;;;0.60;;
24681;SDS011;12802;53.390;-2.328;2023-11-21T04:16:22;4.68;;;0.70;;
24681;SDS011;12802;53.390;-2.328;2023-11-21T04:18:48;1.88;;;0.20;;
24681;SDS011;12802;53.390;-2.328;2023-11-21T04:21:14;1.13;;;0.17;;
24681;SDS011;12802;53.390;-2.328;2023-11-21T04:23:40;1.63;;;0.22;;
24681;SDS011;12802;53.390;-2.328;2023-11-21T04:26:08;1.10;;;0.20;;
24681;SDS011;12802;53.390;-2.328;2023-11-21T04:28:34;0.45;;;0.30;;
24681;SDS011;12802;53.390;-2.328;2023-11-21T04:31:00;0.75;;;0.10;;
24681;SDS011;12802;53.390;-2.328;2023-11-21T04:33:26;1.73;;;0.15;;
24681;SDS011;12802;53.390;-2.328;2023-11-21T04:35:53;0.10;;;0.00;;
24681;SDS011;12802;53.390;-2.328;2023-11-21T04:38:19;2.15;;;0.25;;
24681;SDS011;12802;53.390;-2.328;2023-11-21T04:40:45;2.03;;;0.20;;
24681;SDS011;12802;53.390;-2.328;2023-11-21T04:43:11;2.58;;;0.20;;
24681;SDS011;12802;53.390;-2.328;2023-11-21T04:45:37;4.32;;;0.20;;
24681;SDS011;12802;53.390;-2.328;2023-11-21T04:48:05;0.10;;;0.10;;
24681;SDS011;12802;53.390;-2.328;2023-11-21T04:50:34;1.65;;;0.20;;
24681;SDS011;12802;53.390;-2.328;2023-11-21T04:53:01;1.13;;;0.10;;
24681;SDS011;12802;53.390;-2.328;2023-11-21T04:55:27;1.35;;;0.20;;
24681;SDS011;12802;53.390;-2.328;2023-11-21T04:57:53;1.83;;;0.30;;
24681;SDS011;12802;53.390;-2.328;2023-11-21T05:00:19;2.28;;;0.20;;
24681;SDS011;12802;53.390;-2.328;2023-11-21T05:02:46;2.53;;;0.25;;
24681;SDS011;12802;53.390;-2.328;2023-11-21T05:05:12;1.63;;;0.10;;
24681;SDS011;12802;53.390;-2.328;2023-11-21T05:07:39;0.82;;;0.20;;
24681;SDS011;12802;53.390;-2.328;2023-11-21T05:10:06;0.88;;;0.20;;
24681;SDS011;12802;53.390;-2.328;2023-11-21T05:12:36;2.65;;;0.38;;
24681;SDS011;12802;53.390;-2.328;2023-11-21T05:15:05;0.70;;;0.20;;
24681;SDS011;12802;53.390;-2.328;2023-11-21T05:17:38;0.15;;;0.10;;
24681;SDS011;12802;53.390;-2.328;2023-11-21T05:20:07;1.10;;;0.22;;
24681;SDS011;12802;53.390;-2.328;2023-11-21T05:22:34;0.85;;;0.20;;
24681;SDS011;12802;53.390;-2.328;2023-11-21T05:25:01;0.82;;;0.20;;
24681;SDS011;12802;53.390;-2.328;2023-11-21T05:27:32;1.08;;;0.10;;
24681;SDS011;12802;53.390;-2.328;2023-11-21T05:29:58;0.35;;;0.10;;
24681;SDS011;12802;53.390;-2.328;2023-11-21T05:32:24;1.67;;;0.10;;
24681;SDS011;12802;53.390;-2.328;2023-11-21T05:34:52;0.70;;;0.10;;
24681;SDS011;12802;53.390;-2.328;2023-11-21T05:37:18;1.33;;;0.20;;
24681;SDS011;12802;53.390;-2.328;2023-11-21T05:39:44;1.75;;;0.20;;
24681;SDS011;12802;53.390;-2.328;2023-11-21T05:42:10;1.80;;;0.30;;
24681;SDS011;12802;53.390;-2.328;2023-11-21T05:44:37;0.45;;;0.10;;
24681;SDS011;12802;53.390;-2.328;2023-11-21T05:47:03;1.50;;;0.40;;
24681;SDS011;12802;53.390;-2.328;2023-11-21T05:49:31;2.03;;;0.30;;
24681;SDS011;12802;53.390;-2.328;2023-11-21T05:51:58;2.47;;;0.20;;
24681;SDS011;12802;53.390;-2.328;2023-11-21T05:54:24;1.33;;;0.28;;
24681;SDS011;12802;53.390;-2.328;2023-11-21T05:56:51;1.40;;;0.10;;
24681;SDS011;12802;53.390;-2.328;2023-11-21T05:59:17;2.47;;;0.20;;
24681;SDS011;12802;53.390;-2.328;2023-11-21T06:01:45;2.08;;;0.20;;
24681;SDS011;12802;53.390;-2.328;2023-11-21T06:04:11;3.72;;;0.20;;
24681;SDS011;12802;53.390;-2.328;2023-11-21T06:06:38;2.45;;;0.25;;
24681;SDS011;12802;53.390;-2.328;2023-11-21T06:09:04;1.20;;;0.20;;
24681;SDS011;12802;53.390;-2.328;2023-11-21T06:11:34;5.00;;;0.60;;
24681;SDS011;12802;53.390;-2.328;2023-11-21T06:14:01;1.23;;;0.20;;
24681;SDS011;12802;53.390;-2.328;2023-11-21T06:16:27;0.73;;;0.10;;
24681;SDS011;12802;53.390;-2.328;2023-11-21T06:18:54;0.88;;;0.17;;
24681;SDS011;12802;53.390;-2.328;2023-11-21T06:21:20;1.83;;;0.20;;
24681;SDS011;12802;53.390;-2.328;2023-11-21T06:23:46;5.65;;;0.30;;
24681;SDS011;12802;53.390;-2.328;2023-11-21T06:26:12;0.60;;;0.13;;
24681;SDS011;12802;53.390;-2.328;2023-11-21T06:28:39;1.20;;;0.22;;
24681;SDS011;12802;53.390;-2.328;2023-11-21T06:31:06;1.23;;;0.17;;
24681;SDS011;12802;53.390;-2.328;2023-11-21T06:33:32;7.13;;;0.65;;
24681;SDS011;12802;53.390;-2.328;2023-11-21T06:35:58;2.17;;;0.40;;
24681;SDS011;12802;53.390;-2.328;2023-11-21T06:38:28;2.78;;;0.22;;
24681;SDS011;12802;53.390;-2.328;2023-11-21T06:40:57;1.33;;;0.45;;
24681;SDS011;12802;53.390;-2.328;2023-11-21T06:43:24;1.25;;;0.15;;
24681;SDS011;12802;53.390;-2.328;2023-11-21T06:45:50;1.08;;;0.28;;
24681;SDS011;12802;53.390;-2.328;2023-11-21T06:48:16;1.40;;;0.30;;
24681;SDS011;12802;53.390;-2.328;2023-11-21T06:50:43;1.25;;;0.20;;
24681;SDS011;12802;53.390;-2.328;2023-11-21T06:53:09;1.90;;;0.40;;
24681;SDS011;12802;53.390;-2.328;2023-11-21T06:55:35;0.50;;;0.30;;
24681;SDS011;12802;53.390;-2.328;2023-11-21T06:58:02;3.08;;;0.32;;
24681;SDS011;12802;53.390;-2.328;2023-11-21T07:00:30;1.63;;;0.30;;
24681;SDS011;12802;53.390;-2.328;2023-11-21T07:02:56;3.35;;;0.40;;
24681;SDS011;12802;53.390;-2.328;2023-11-21T07:05:22;2.25;;;0.35;;
24681;SDS011;12802;53.390;-2.328;2023-11-21T07:07:49;1.23;;;0.40;;
24681;SDS011;12802;53.390;-2.328;2023-11-21T07:10:15;2.65;;;0.30;;
24681;SDS011;12802;53.390;-2.328;2023-11-21T07:12:42;2.67;;;0.45;;
24681;SDS011;12802;53.390;-2.328;2023-11-21T07:15:08;4.43;;;0.40;;
24681;SDS011;12802;53.390;-2.328;2023-11-21T07:17:34;2.50;;;0.38;;
24681;SDS011;12802;53.390;-2.328;2023-11-21T07:20:01;4.22;;;0.50;;
24681;SDS011;12802;53.390;-2.328;2023-11-21T07:22:27;4.55;;;0.50;;
24681;SDS011;12802;53.390;-2.328;2023-11-21T07:24:53;2.50;;;0.50;;
24681;SDS011;12802;53.390;-2.328;2023-11-21T07:27:21;4.38;;;0.70;;
24681;SDS011;12802;53.390;-2.328;2023-11-21T07:29:47;3.55;;;0.60;;
24681;SDS011;12802;53.390;-2.328;2023-11-21T07:32:14;2.33;;;0.50;;
24681;SDS011;12802;53.390;-2.328;2023-11-21T07:34:40;5.10;;;0.77;;
24681;SDS011;12802;53.390;-2.328;2023-11-21T07:37:07;4.05;;;0.85;;
24681;SDS011;12802;53.390;-2.328;2023-11-21T07:39:34;4.22;;;1.27;;
24681;SDS011;12802;53.390;-2.328;2023-11-21T07:42:01;3.58;;;0.80;;
24681;SDS011;12802;53.390;-2.328;2023-11-21T07:44:27;3.15;;;0.80;;
24681;SDS011;12802;53.390;-2.328;2023-11-21T07:46:54;4.82;;;0.90;;
24681;SDS011;12802;53.390;-2.328;2023-11-21T07:51:50;2.35;;;0.70;;
24681;SDS011;12802;53.390;-2.328;2023-11-21T07:54:16;6.20;;;1.23;;
24681;SDS011;12802;53.390;-2.328;2023-11-21T07:56:42;3.53;;;0.75;;
24681;SDS011;12802;53.390;-2.328;2023-11-21T07:59:08;2.08;;;0.70;;
24681;SDS011;12802;53.390;-2.328;2023-11-21T08:01:34;5.35;;;0.98;;
24681;SDS011;12802;53.390;-2.328;2023-11-21T08:04:00;6.03;;;0.80;;
24681;SDS011;12802;53.390;-2.328;2023-11-21T08:06:28;5.25;;;0.80;;
24681;SDS011;12802;53.390;-2.328;2023-11-21T08:08:54;2.72;;;0.80;;
24681;SDS011;12802;53.390;-2.328;2023-11-21T08:11:20;3.58;;;0.80;;
24681;SDS011;12802;53.390;-2.328;2023-11-21T08:13:47;3.90;;;0.98;;
24681;SDS011;12802;53.390;-2.328;2023-11-21T08:16:13;2.65;;;0.93;;
24681;SDS011;12802;53.390;-2.328;2023-11-21T08:18:39;3.85;;;1.00;;
24681;SDS011;12802;53.390;-2.328;2023-11-21T08:21:06;4.05;;;1.05;;
24681;SDS011;12802;53.390;-2.328;2023-11-21T08:23:33;3.95;;;0.73;;
24681;SDS011;12802;53.390;-2.328;2023-11-21T08:25:59;3.28;;;0.88;;
24681;SDS011;12802;53.390;-2.328;2023-11-21T08:28:27;6.10;;;1.20;;
24681;SDS011;12802;53.390;-2.328;2023-11-21T08:30:53;6.63;;;1.10;;
24681;SDS011;12802;53.390;-2.328;2023-11-21T08:33:19;3.42;;;0.95;;
24681;SDS011;12802;53.390;-2.328;2023-11-21T08:35:45;4.55;;;0.95;;
24681;SDS011;12802;53.390;-2.328;2023-11-21T08:38:11;6.05;;;0.80;;
24681;SDS011;12802;53.390;-2.328;2023-11-21T08:40:38;6.00;;;1.00;;
24681;SDS011;12802;53.390;-2.328;2023-11-21T08:43:04;3.75;;;1.30;;
24681;SDS011;12802;53.390;-2.328;2023-11-21T08:45:30;6.05;;;1.20;;
24681;SDS011;12802;53.390;-2.328;2023-11-21T08:47:57;5.47;;;1.40;;
24681;SDS011;12802;53.390;-2.328;2023-11-21T08:50:23;7.20;;;1.45;;
24681;SDS011;12802;53.390;-2.328;2023-11-21T08:52:49;8.57;;;1.25;;
24681;SDS011;12802;53.390;-2.328;2023-11-21T08:55:16;5.45;;;1.15;;
24681;SDS011;12802;53.390;-2.328;2023-11-21T08:57:43;6.88;;;1.27;;
24681;SDS011;12802;53.390;-2.328;2023-11-21T09:00:11;4.15;;;1.00;;
24681;SDS011;12802;53.390;-2.328;2023-11-21T09:02:40;4.72;;;1.02;;
24681;SDS011;12802;53.390;-2.328;2023-11-21T09:05:10;5.32;;;1.17;;
24681;SDS011;12802;53.390;-2.328;2023-11-21T09:07:37;8.05;;;1.40;;
24681;SDS011;12802;53.390;-2.328;2023-11-21T09:10:04;11.45;;;1.33;;
24681;SDS011;12802;53.390;-2.328;2023-11-21T09:12:33;4.37;;;1.17;;
24681;SDS011;12802;53.390;-2.328;2023-11-21T09:15:01;9.05;;;0.90;;
24681;SDS011;12802;53.390;-2.328;2023-11-21T09:17:27;10.77;;;1.33;;
24681;SDS011;12802;53.390;-2.328;2023-11-21T09:19:53;5.20;;;1.30;;
24681;SDS011;12802;53.390;-2.328;2023-11-21T09:22:19;5.82;;;1.10;;
24681;SDS011;12802;53.390;-2.328;2023-11-21T09:24:45;7.40;;;1.20;;
24681;SDS011;12802;53.390;-2.328;2023-11-21T09:27:11;7.88;;;1.25;;
24681;SDS011;12802;53.390;-2.328;2023-11-21T09:29:37;7.05;;;1.50;;
24681;SDS011;12802;53.390;-2.328;2023-11-21T09:32:04;6.95;;;1.48;;
24681;SDS011;12802;53.390;-2.328;2023-11-21T09:34:32;6.75;;;1.20;;
24681;SDS011;12802;53.390;-2.328;2023-11-21T09:36:58;8.40;;;1.25;;
24681;SDS011;12802;53.390;-2.328;2023-11-21T09:39:24;6.32;;;1.30;;
24681;SDS011;12802;53.390;-2.328;2023-11-21T09:41:58;6.78;;;1.38;;
24681;SDS011;12802;53.390;-2.328;2023-11-21T09:45:11;9.32;;;1.50;;
24681;SDS011;12802;53.390;-2.328;2023-11-21T09:47:15;11.23;;;1.40;;
24681;SDS011;12802;53.390;-2.328;2023-11-21T09:49:47;8.52;;;1.55;;
24681;SDS011;12802;53.390;-2.328;2023-11-21T09:52:27;8.43;;;1.67;;
24681;SDS011;12802;53.390;-2.328;2023-11-21T09:54:55;4.85;;;1.30;;
24681;SDS011;12802;53.390;-2.328;2023-11-21T09:57:25;10.88;;;1.25;;
24681;SDS011;12802;53.390;-2.328;2023-11-21T09:59:53;6.10;;;1.55;;
24681;SDS011;12802;53.390;-2.328;2023-11-21T10:02:27;8.05;;;1.50;;
24681;SDS011;12802;53.390;-2.328;2023-11-21T10:04:55;5.05;;;1.23;;
24681;SDS011;12802;53.390;-2.328;2023-11-21T10:07:21;6.10;;;1.55;;
24681;SDS011;12802;53.390;-2.328;2023-11-21T10:09:50;5.95;;;1.48;;
24681;SDS011;12802;53.390;-2.328;2023-11-21T10:12:17;7.90;;;1.73;;
24681;SDS011;12802;53.390;-2.328;2023-11-21T10:14:46;6.30;;;1.40;;
24681;SDS011;12802;53.390;-2.328;2023-11-21T10:17:14;8.75;;;1.50;;
24681;SDS011;12802;53.390;-2.328;2023-11-21T10:19:51;5.80;;;1.27;;
24681;SDS011;12802;53.390;-2.328;2023-11-21T10:22:19;6.32;;;1.10;;
24681;SDS011;12802;53.390;-2.328;2023-11-21T10:24:47;7.40;;;1.10;;
24681;SDS011;12802;53.390;-2.328;2023-11-21T10:27:13;6.65;;;1.40;;
24681;SDS011;12802;53.390;-2.328;2023-11-21T10:29:39;8.23;;;1.75;;
24681;SDS011;12802;53.390;-2.328;2023-11-21T10:32:06;7.25;;;1.40;;
24681;SDS011;12802;53.390;-2.328;2023-11-21T10:34:33;4.35;;;1.42;;
24681;SDS011;12802;53.390;-2.328;2023-11-21T10:37:00;8.77;;;1.60;;
24681;SDS011;12802;53.390;-2.328;2023-11-21T10:39:36;6.88;;;1.35;;
24681;SDS011;12802;53.390;-2.328;2023-11-21T10:42:02;8.48;;;1.38;;
24681;SDS011;12802;53.390;-2.328;2023-11-21T10:44:28;6.43;;;1.27;;
24681;SDS011;12802;53.390;-2.328;2023-11-21T10:46:55;6.43;;;1.60;;
24681;SDS011;12802;53.390;-2.328;2023-11-21T10:49:22;5.70;;;1.25;;
24681;SDS011;12802;53.390;-2.328;2023-11-21T10:51:50;9.57;;;1.40;;
24681;SDS011;12802;53.390;-2.328;2023-11-21T10:54:21;4.85;;;1.02;;
24681;SDS011;12802;53.390;-2.328;2023-11-21T10:56:52;6.38;;;1.08;;
24681;SDS011;12802;53.390;-2.328;2023-11-21T10:59:19;6.05;;;1.35;;
24681;SDS011;12802;53.390;-2.328;2023-11-21T11:01:50;5.05;;;1.20;;
24681;SDS011;12802;53.390;-2.328;2023-11-21T11:04:20;4.47;;;0.90;;
24681;SDS011;12802;53.390;-2.328;2023-11-21T11:06:53;5.25;;;0.80;;
24681;SDS011;12802;53.390;-2.328;2023-11-21T11:09:20;5.72;;;1.27;;
24681;SDS011;12802;53.390;-2.328;2023-11-21T11:11:46;6.63;;;1.00;;
24681;SDS011;12802;53.390;-2.328;2023-11-21T11:14:14;7.15;;;1.50;;
24681;SDS011;12802;53.390;-2.328;2023-11-21T11:16:41;7.18;;;1.20;;
24681;SDS011;12802;53.390;-2.328;2023-11-21T11:19:10;5.03;;;1.45;;
24681;SDS011;12802;53.390;-2.328;2023-11-21T11:27:06;4.47;;;1.20;;
24681;SDS011;12802;53.390;-2.328;2023-11-21T11:30:38;8.10;;;1.30;;
24681;SDS011;12802;53.390;-2.328;2023-11-21T11:32:53;5.43;;;1.10;;
24681;SDS011;12802;53.390;-2.328;2023-11-21T11:36:04;5.75;;;0.90;;
24681;SDS011;12802;53.390;-2.328;2023-11-21T11:38:12;3.03;;;0.98;;
24681;SDS011;12802;53.390;-2.328;2023-11-21T11:40:39;4.80;;;0.85;;
24681;SDS011;12802;53.390;-2.328;2023-11-21T11:43:06;6.10;;;0.80;;
24681;SDS011;12802;53.390;-2.328;2023-11-21T11:45:33;5.22;;;0.90;;
24681;SDS011;12802;53.390;-2.328;2023-11-21T11:48:00;5.20;;;1.00;;
24681;SDS011;12802;53.390;-2.328;2023-11-21T11:50:27;4.57;;;1.40;;
24681;SDS011;12802;53.390;-2.328;2023-11-21T11:52:53;4.18;;;1.00;;
24681;SDS011;12802;53.390;-2.328;2023-11-21T11:55:24;7.40;;;1.00;;
24681;SDS011;12802;53.390;-2.328;2023-11-21T11:58:10;3.67;;;0.90;;
24681;SDS011;12802;53.390;-2.328;2023-11-21T12:00:40;6.50;;;0.80;;
24681;SDS011;12802;53.390;-2.328;2023-11-21T12:03:08;4.97;;;0.90;;
24681;SDS011;12802;53.390;-2.328;2023-11-21T12:05:35;7.55;;;1.08;;
24681;SDS011;12802;53.390;-2.328;2023-11-21T12:08:05;4.88;;;1.08;;
24681;SDS011;12802;53.390;-2.328;2023-11-21T12:10:32;5.25;;;0.80;;
24681;SDS011;12802;53.390;-2.328;2023-11-21T12:13:09;2.72;;;0.80;;
24681;SDS011;12802;53.390;-2.328;2023-11-21T12:15:37;4.07;;;0.90;;
24681;SDS011;12802;53.390;-2.328;2023-11-21T12:18:04;2.75;;;0.77;;
24681;SDS011;12802;53.390;-2.328;2023-11-21T12:20:30;7.75;;;1.30;;
24681;SDS011;12802;53.390;-2.328;2023-11-21T12:22:57;7.47;;;1.05;;
24681;SDS011;12802;53.390;-2.328;2023-11-21T12:25:28;6.75;;;1.02;;
24681;SDS011;12802;53.390;-2.328;2023-11-21T12:27:55;4.93;;;1.15;;
24681;SDS011;12802;53.390;-2.328;2023-11-21T12:30:22;7.47;;;1.20;;
24681;SDS011;12802;53.390;-2.328;2023-11-21T12:32:49;4.28;;;1.00;;
24681;SDS011;12802;53.390;-2.328;2023-11-21T12:35:16;4.70;;;0.93;;
24681;SDS011;12802;53.390;-2.328;2023-11-21T12:37:44;4.68;;;0.77;;
24681;SDS011;12802;53.390;-2.328;2023-11-21T12:40:12;7.82;;;0.98;;
24681;SDS011;12802;53.390;-2.328;2023-11-21T12:42:45;4.85;;;0.80;;
24681;SDS011;12802;53.390;-2.328;2023-11-21T12:47:43;3.88;;;0.73;;
24681;SDS011;12802;53.390;-2.328;2023-11-21T12:50:10;4.30;;;1.10;;
24681;SDS011;12802;53.390;-2.328;2023-11-21T12:52:42;4.45;;;0.90;;
24681;SDS011;12802;53.390;-2.328;2023-11-21T12:55:16;7.13;;;1.33;;
24681;SDS011;12802;53.390;-2.328;2023-11-21T12:57:43;6.97;;;0.90;;
24681;SDS011;12802;53.390;-2.328;2023-11-21T13:00:09;4.00;;;0.70;;
24681;SDS011;12802;53.390;-2.328;2023-11-21T13:02:40;3.60;;;0.70;;
24681;SDS011;12802;53.390;-2.328;2023-11-21T13:05:07;2.65;;;0.70;;
24681;SDS011;12802;53.390;-2.328;2023-11-21T13:07:43;2.95;;;1.15;;
24681;SDS011;12802;53.390;-2.328;2023-11-21T13:10:13;3.42;;;0.70;;
24681;SDS011;12802;53.390;-2.328;2023-11-21T13:12:43;2.53;;;0.60;;
24681;SDS011;12802;53.390;-2.328;2023-11-21T13:15:13;3.38;;;0.90;;
24681;SDS011;12802;53.390;-2.328;2023-11-21T13:17:43;4.97;;;1.02;;
24681;SDS011;12802;53.390;-2.328;2023-11-21T13:20:12;5.57;;;0.73;;
24681;SDS011;12802;53.390;-2.328;2023-11-21T13:22:50;2.55;;;0.70;;
24681;SDS011;12802;53.390;-2.328;2023-11-21T13:25:22;1.58;;;0.60;;
24681;SDS011;12802;53.390;-2.328;2023-11-21T13:27:53;4.88;;;0.85;;
24681;SDS011;12802;53.390;-2.328;2023-11-21T13:30:19;4.03;;;0.70;;
24681;SDS011;12802;53.390;-2.328;2023-11-21T13:32:51;4.60;;;0.77;;
24681;SDS011;12802;53.390;-2.328;2023-11-21T13:35:17;4.75;;;0.90;;
24681;SDS011;12802;53.390;-2.328;2023-11-21T13:37:55;2.17;;;0.60;;
24681;SDS011;12802;53.390;-2.328;2023-11-21T13:40:25;4.45;;;0.70;;
24681;SDS011;12802;53.390;-2.328;2023-11-21T13:42:52;7.07;;;0.88;;
24681;SDS011;12802;53.390;-2.328;2023-11-21T13:45:19;3.42;;;0.80;;
24681;SDS011;12802;53.390;-2.328;2023-11-21T13:47:47;5.05;;;1.10;;
24681;SDS011;12802;53.390;-2.328;2023-11-21T13:50:13;2.97;;;1.05;;
24681;SDS011;12802;53.390;-2.328;2023-11-21T13:52:44;4.93;;;1.20;;
24681;SDS011;12802;53.390;-2.328;2023-11-21T13:55:10;3.60;;;1.42;;
24681;SDS011;12802;53.390;-2.328;2023-11-21T13:57:41;4.03;;;1.30;;
24681;SDS011;12802;53.390;-2.328;2023-11-21T14:00:10;3.88;;;0.80;;
24681;SDS011;12802;53.390;-2.328;2023-11-21T14:02:56;3.72;;;0.90;;
24681;SDS011;12802;53.390;-2.328;2023-11-21T14:05:29;4.00;;;0.60;;
24681;SDS011;12802;53.390;-2.328;2023-11-21T14:07:56;5.10;;;0.88;;
24681;SDS011;12802;53.390;-2.328;2023-11-21T14:10:29;3.78;;;1.00;;
24681;SDS011;12802;53.390;-2.328;2023-11-21T14:13:05;4.95;;;1.05;;
24681;SDS011;12802;53.390;-2.328;2023-11-21T14:15:31;4.03;;;0.57;;
24681;SDS011;12802;53.390;-2.328;2023-11-21T14:18:02;5.88;;;1.02;;
24681;SDS011;12802;53.390;-2.328;2023-11-21T14:20:33;10.93;;;1.15;;
24681;SDS011;12802;53.390;-2.328;2023-11-21T14:23:01;4.78;;;0.80;;
24681;SDS011;12802;53.390;-2.328;2023-11-21T14:25:27;5.82;;;0.80;;
24681;SDS011;12802;53.390;-2.328;2023-11-21T14:27:53;9.80;;;1.95;;
24681;SDS011;12802;53.390;-2.328;2023-11-21T14:30:19;122.55;;;6.68;;
24681;SDS011;12802;53.390;-2.328;2023-11-21T14:32:47;44.17;;;3.08;;
24681;SDS011;12802;53.390;-2.328;2023-11-21T14:35:15;3.47;;;1.05;;
24681;SDS011;12802;53.390;-2.328;2023-11-21T14:37:42;9.20;;;1.20;;
24681;SDS011;12802;53.390;-2.328;2023-11-21T14:40:08;5.80;;;1.00;;
24681;SDS011;12802;53.390;-2.328;2023-11-21T14:42:35;6.03;;;0.75;;
24681;SDS011;12802;53.390;-2.328;2023-11-21T14:45:04;51.70;;;3.92;;
24681;SDS011;12802;53.390;-2.328;2023-11-21T14:47:32;38.45;;;2.72;;